createdAt,value
2023-03-29T00:02:03.573Z,94.20
2023-03-29T00:04:30.423Z,94.40
2023-03-29T00:06:57.120Z,93.60
2023-03-29T00:09:26.556Z,92.80
2023-03-29T00:11:53.360Z,92.60
2023-03-29T00:14:20.185Z,92.90
2023-03-29T00:16:47.149Z,93.40
2023-03-29T00:19:13.869Z,94.40
2023-03-29T00:21:40.891Z,94.40
2023-03-29T00:24:07.603Z,94.10
2023-03-29T00:26:34.283Z,95.00
2023-03-29T00:29:00.982Z,95.30
2023-03-29T00:31:28.552Z,95.00
2023-03-29T00:33:55.285Z,94.90
2023-03-29T00:36:22.213Z,94.90
2023-03-29T00:38:48.980Z,94.60
2023-03-29T00:41:15.638Z,94.60
2023-03-29T00:43:56.539Z,94.80
2023-03-29T00:46:23.963Z,95.20
2023-03-29T00:48:52.912Z,94.90
2023-03-29T00:51:20.452Z,95.20
2023-03-29T00:53:49.257Z,95.40
2023-03-29T00:56:20.297Z,95.50
2023-03-29T00:58:52.985Z,95.40
2023-03-29T01:01:25.963Z,95.10
2023-03-29T01:03:54.915Z,95.40
2023-03-29T01:06:24.740Z,95.10
2023-03-29T01:08:53.742Z,95.00
2023-03-29T01:11:22.445Z,94.90
2023-03-29T01:13:57.286Z,94.70
2023-03-29T01:16:25.735Z,94.40
2023-03-29T01:18:52.506Z,94.60
2023-03-29T01:21:29.342Z,95.80
2023-03-29T01:24:15.286Z,96.50
2023-03-29T01:26:45.389Z,96.60
2023-03-29T01:29:15.391Z,96.40
2023-03-29T01:31:47.123Z,95.50
2023-03-29T01:34:20.122Z,95.30
2023-03-29T01:36:51.872Z,95.40
2023-03-29T01:39:19.202Z,96.40
2023-03-29T01:41:57.557Z,96.00
2023-03-29T01:44:30.711Z,95.80
2023-03-29T01:47:16.280Z,96.80
2023-03-29T01:49:52.166Z,96.50
2023-03-29T01:52:24.771Z,95.60
2023-03-29T01:54:58.587Z,95.80
2023-03-29T01:57:26.363Z,95.30
2023-03-29T01:59:54.445Z,95.40
2023-03-29T02:02:21.595Z,96.50
2023-03-29T02:04:51.772Z,96.10
2023-03-29T02:07:20.387Z,96.20
2023-03-29T02:09:48.994Z,97.20
2023-03-29T02:12:16.604Z,97.20
2023-03-29T02:14:43.276Z,96.80
2023-03-29T02:17:15.636Z,96.40
2023-03-29T02:19:42.801Z,96.30
2023-03-29T02:22:10.305Z,96.40
2023-03-29T02:24:37.377Z,96.10
2023-03-29T02:27:04.658Z,96.20
2023-03-29T02:29:31.318Z,96.70
2023-03-29T02:31:57.948Z,97.10
2023-03-29T02:34:38.906Z,97.00
2023-03-29T02:37:12.089Z,96.50
2023-03-29T02:39:39.384Z,96.50
2023-03-29T02:42:06.973Z,95.80
2023-03-29T02:44:36.431Z,95.70
2023-03-29T02:47:06.621Z,96.20
2023-03-29T02:49:33.300Z,97.10
2023-03-29T02:52:04.201Z,97.30
2023-03-29T02:54:31.596Z,97.60
2023-03-29T02:57:00.237Z,98.30
2023-03-29T02:59:29.804Z,98.80
2023-03-29T03:01:56.772Z,97.90
2023-03-29T03:04:23.482Z,97.60
2023-03-29T03:06:50.150Z,95.80
2023-03-29T03:09:17.056Z,95.20
2023-03-29T03:11:43.713Z,95.50
2023-03-29T03:14:10.497Z,95.50
2023-03-29T03:16:37.344Z,95.90
2023-03-29T03:19:04.044Z,95.20
2023-03-29T03:21:30.793Z,95.50
2023-03-29T03:23:57.443Z,95.40
2023-03-29T03:26:24.973Z,95.60
2023-03-29T03:28:51.618Z,96.10
2023-03-29T03:31:19.581Z,96.10
2023-03-29T03:33:46.348Z,95.70
2023-03-29T03:36:13.163Z,95.20
2023-03-29T03:38:40.056Z,96.30
2023-03-29T03:41:07.258Z,96.20
2023-03-29T03:43:34.055Z,95.90
2023-03-29T03:46:01.319Z,96.40
2023-03-29T03:48:28.024Z,96.00
2023-03-29T03:50:55.872Z,95.90
2023-03-29T03:53:23.530Z,96.10
2023-03-29T03:55:50.968Z,96.90
2023-03-29T03:58:17.972Z,96.90
2023-03-29T04:00:45.180Z,97.00
2023-03-29T04:03:11.994Z,97.80
2023-03-29T04:05:39.941Z,97.60
2023-03-29T04:08:06.926Z,97.10
2023-03-29T04:10:34.377Z,97.10
2023-03-29T04:13:04.973Z,97.10
2023-03-29T04:15:32.573Z,97.90
2023-03-29T04:18:00.046Z,98.20
2023-03-29T04:20:27.193Z,97.90
2023-03-29T04:22:54.044Z,97.50
2023-03-29T04:25:22.356Z,97.30
2023-03-29T04:27:49.516Z,97.00
2023-03-29T04:30:16.990Z,96.90
2023-03-29T04:32:43.647Z,96.10
2023-03-29T04:35:10.592Z,96.20
2023-03-29T04:37:40.307Z,96.70
2023-03-29T04:40:14.365Z,96.60
2023-03-29T04:42:45.840Z,96.40
2023-03-29T04:45:18.082Z,96.20
2023-03-29T04:47:45.714Z,95.90
2023-03-29T04:50:13.837Z,95.50
2023-03-29T04:52:40.986Z,95.80
2023-03-29T04:55:07.961Z,96.00
2023-03-29T04:57:34.707Z,95.60
2023-03-29T05:00:01.400Z,95.50
2023-03-29T05:02:30.948Z,95.10
2023-03-29T05:04:57.679Z,94.90
2023-03-29T05:07:24.597Z,95.00
2023-03-29T05:09:51.958Z,96.00
2023-03-29T05:12:18.630Z,97.10
2023-03-29T05:14:45.671Z,97.00
2023-03-29T05:17:12.365Z,97.40
2023-03-29T05:19:39.065Z,97.90
2023-03-29T05:22:05.732Z,97.80
2023-03-29T05:24:32.410Z,97.30
2023-03-29T05:26:59.078Z,96.80
2023-03-29T05:29:25.971Z,95.30
2023-03-29T05:31:52.948Z,95.60
2023-03-29T05:34:20.065Z,95.10
2023-03-29T05:36:46.785Z,94.50
2023-03-29T05:39:13.538Z,92.90
2023-03-29T05:41:41.642Z,94.60
2023-03-29T05:44:08.481Z,95.70
2023-03-29T05:46:35.532Z,95.80
2023-03-29T05:49:02.477Z,95.60
2023-03-29T05:51:29.374Z,94.50
2023-03-29T05:53:56.229Z,93.10
2023-03-29T05:56:22.895Z,92.60
2023-03-29T05:58:49.595Z,92.40
2023-03-29T06:01:18.072Z,93.90
2023-03-29T06:03:46.339Z,95.00
2023-03-29T06:06:16.469Z,95.00
2023-03-29T06:08:43.767Z,95.30
2023-03-29T06:11:11.938Z,95.40
2023-03-29T06:13:39.026Z,95.20
2023-03-29T06:16:06.413Z,95.20
2023-03-29T06:18:33.529Z,95.00
2023-03-29T06:21:02.043Z,94.90
2023-03-29T06:23:29.414Z,94.40
2023-03-29T06:25:56.396Z,94.00
2023-03-29T06:28:24.061Z,94.10
2023-03-29T06:30:50.774Z,94.30
2023-03-29T06:33:18.788Z,94.00
2023-03-29T06:35:46.916Z,93.80
2023-03-29T06:38:15.161Z,93.30
2023-03-29T06:40:43.205Z,92.60
2023-03-29T06:43:09.968Z,91.80
2023-03-29T06:45:38.074Z,90.60
2023-03-29T06:48:05.913Z,90.90
2023-03-29T06:50:32.686Z,90.60
2023-03-29T06:52:59.355Z,89.50
2023-03-29T06:55:27.139Z,90.50
2023-03-29T06:57:54.540Z,90.80
2023-03-29T07:00:30.685Z,90.20
2023-03-29T07:02:58.665Z,90.70
2023-03-29T07:05:28.679Z,87.20
2023-03-29T07:07:57.097Z,88.00
2023-03-29T07:10:26.163Z,87.70
2023-03-29T07:12:52.994Z,88.20
2023-03-29T07:15:20.802Z,88.90
2023-03-29T07:17:48.170Z,87.30
2023-03-29T07:20:15.493Z,85.70
2023-03-29T07:22:43.560Z,84.50
2023-03-29T07:25:12.320Z,85.80
2023-03-29T07:27:40.239Z,87.30
2023-03-29T07:30:11.184Z,88.60
2023-03-29T07:32:38.974Z,87.60
2023-03-29T07:35:07.217Z,87.80
2023-03-29T07:37:35.251Z,87.70
2023-03-29T07:40:04.289Z,87.50
2023-03-29T07:42:31.010Z,87.30
2023-03-29T07:44:58.625Z,86.00
2023-03-29T07:47:26.039Z,84.10
2023-03-29T07:49:52.702Z,81.90
2023-03-29T07:52:19.356Z,80.80
2023-03-29T07:54:46.190Z,82.40
2023-03-29T07:57:12.868Z,82.90
2023-03-29T07:59:39.617Z,82.10
2023-03-29T08:02:06.799Z,80.70
2023-03-29T08:04:33.745Z,78.30
2023-03-29T08:07:00.694Z,75.90
2023-03-29T08:09:27.791Z,75.10
2023-03-29T08:11:54.454Z,74.60
2023-03-29T08:14:21.980Z,74.30
2023-03-29T08:16:48.702Z,75.30
2023-03-29T08:19:16.652Z,73.50
2023-03-29T08:21:43.349Z,76.20
2023-03-29T08:24:10.030Z,74.80
2023-03-29T08:26:36.781Z,75.50
2023-03-29T08:29:04.069Z,75.00
2023-03-29T08:31:30.860Z,75.10
2023-03-29T08:33:57.598Z,75.70
2023-03-29T08:36:24.254Z,74.40
2023-03-29T08:38:51.532Z,73.60
2023-03-29T08:41:21.234Z,74.10
2023-03-29T08:43:50.947Z,73.10
2023-03-29T08:46:17.657Z,72.40
2023-03-29T08:48:48.165Z,71.00
2023-03-29T08:51:21.716Z,71.90
2023-03-29T08:53:53.787Z,71.60
2023-03-29T08:56:23.243Z,69.50
2023-03-29T08:58:51.390Z,69.00
2023-03-29T09:01:19.107Z,70.00
2023-03-29T09:03:51.798Z,69.00
2023-03-29T09:06:20.390Z,70.50
2023-03-29T09:08:48.039Z,67.90
2023-03-29T09:11:20.801Z,71.00
2023-03-29T09:13:47.456Z,70.30
2023-03-29T09:16:37.661Z,70.10
2023-03-29T09:19:10.739Z,68.20
2023-03-29T09:21:46.982Z,68.70
2023-03-29T09:24:33.856Z,69.70
2023-03-29T09:27:02.936Z,69.50
2023-03-29T09:29:29.810Z,68.60
2023-03-29T09:31:56.799Z,67.10
2023-03-29T09:34:28.128Z,68.90
2023-03-29T09:36:56.820Z,68.40
2023-03-29T09:39:26.389Z,68.20
2023-03-29T09:42:04.354Z,70.30
2023-03-29T09:44:33.401Z,68.50
2023-03-29T09:47:07.561Z,69.10
2023-03-29T09:49:40.174Z,67.20
2023-03-29T09:52:11.473Z,67.60
2023-03-29T09:54:38.196Z,68.30
2023-03-29T09:57:04.922Z,69.50
2023-03-29T09:59:31.608Z,67.50
2023-03-29T10:02:06.529Z,67.80
2023-03-29T10:04:33.238Z,67.80
2023-03-29T10:07:00.074Z,69.50
2023-03-29T10:09:28.993Z,67.20
2023-03-29T10:11:57.184Z,67.00
2023-03-29T10:14:35.428Z,67.90
2023-03-29T10:17:04.379Z,68.30
2023-03-29T10:19:35.198Z,68.90
2023-03-29T10:22:14.448Z,67.70
2023-03-29T10:24:47.579Z,68.50
2023-03-29T10:27:14.359Z,68.50
2023-03-29T10:29:42.412Z,68.00
2023-03-29T10:32:50.608Z,69.70
2023-03-29T10:35:33.787Z,74.10
2023-03-29T10:38:37.773Z,71.50
2023-03-29T10:41:10.144Z,73.00
2023-03-29T10:43:45.425Z,72.40
2023-03-29T10:46:20.788Z,70.20
2023-03-29T10:48:51.900Z,71.40
2023-03-29T10:51:19.383Z,68.00
2023-03-29T10:53:46.712Z,68.50
2023-03-29T10:56:13.793Z,69.20
2023-03-29T10:58:59.340Z,70.00
2023-03-29T11:01:31.741Z,69.50
2023-03-29T11:04:04.094Z,70.80
2023-03-29T11:06:34.728Z,70.00
2023-03-29T11:09:02.994Z,66.90
2023-03-29T11:11:48.540Z,68.90
2023-03-29T11:14:21.972Z,68.40
2023-03-29T11:17:07.542Z,68.80
2023-03-29T11:19:56.596Z,69.10
2023-03-29T11:22:29.327Z,68.70
2023-03-29T11:25:08.076Z,69.10
2023-03-29T11:27:41.812Z,67.40
2023-03-29T11:30:13.261Z,65.70
2023-03-29T11:32:46.513Z,67.60
2023-03-29T11:38:45.426Z,66.50
2023-03-29T11:41:19.812Z,67.40
2023-03-29T11:44:00.698Z,65.10
2023-03-29T11:46:39.116Z,66.10
2023-03-29T11:49:11.970Z,68.70
2023-03-29T11:51:46.209Z,67.00
2023-03-29T11:54:12.923Z,65.30
2023-03-29T11:56:54.934Z,65.80
2023-03-29T11:59:24.229Z,67.00
2023-03-29T12:02:09.735Z,67.30
2023-03-29T12:04:43.518Z,69.50
2023-03-29T12:07:17.326Z,67.70
2023-03-29T12:09:45.048Z,70.20
2023-03-29T12:12:20.858Z,71.10
2023-03-29T12:14:48.024Z,70.40
2023-03-29T12:17:17.296Z,69.00
2023-03-29T12:19:48.921Z,68.50
2023-03-29T12:22:15.718Z,70.40
2023-03-29T12:28:37.909Z,65.30
2023-03-29T12:31:46.499Z,63.60
2023-03-29T12:34:34.147Z,60.20
2023-03-29T12:37:06.500Z,63.30
2023-03-29T12:39:33.601Z,60.40
2023-03-29T12:42:26.403Z,61.40
2023-03-29T12:44:59.822Z,64.60
2023-03-29T12:47:27.877Z,59.50
2023-03-29T12:50:42.740Z,59.80
2023-03-29T12:53:15.065Z,60.00
2023-03-29T12:55:46.338Z,61.10
2023-03-29T12:58:33.337Z,60.80
2023-03-29T13:07:56.068Z,59.30
2023-03-29T13:10:30.861Z,59.90
2023-03-29T13:13:08.414Z,62.50
2023-03-29T13:15:35.916Z,61.20
2023-03-29T13:18:06.251Z,60.20
2023-03-29T13:20:37.620Z,60.30
2023-03-29T13:23:22.958Z,61.20
2023-03-29T13:25:52.732Z,61.20
2023-03-29T13:28:19.390Z,59.40
2023-03-29T13:30:50.181Z,57.90
2023-03-29T13:33:35.281Z,58.90
2023-03-29T13:36:05.562Z,59.20
2023-03-29T13:38:33.207Z,60.00
2023-03-29T13:41:07.380Z,61.60
2023-03-29T13:43:34.248Z,59.60
2023-03-29T13:46:01.098Z,62.60
2023-03-29T13:48:32.451Z,58.70
2023-03-29T13:51:08.032Z,56.90
2023-03-29T13:53:46.785Z,58.70
2023-03-29T13:56:18.837Z,58.80
2023-03-29T13:58:53.183Z,59.00
2023-03-29T14:01:58.754Z,58.10
2023-03-29T14:04:27.082Z,59.90
2023-03-29T14:06:55.308Z,59.20
2023-03-29T14:09:30.139Z,57.10
2023-03-29T14:11:58.177Z,60.70
2023-03-29T14:14:25.772Z,58.50
2023-03-29T14:16:54.133Z,57.90
2023-03-29T14:19:38.885Z,58.30
2023-03-29T14:22:10.148Z,58.50
2023-03-29T14:24:45.005Z,58.80
2023-03-29T14:27:12.126Z,57.70
2023-03-29T14:29:38.813Z,58.30
2023-03-29T14:32:10.326Z,58.20
2023-03-29T14:34:37.496Z,58.30
2023-03-29T14:37:04.601Z,59.20
2023-03-29T14:39:33.145Z,57.10
2023-03-29T14:42:00.363Z,57.70
2023-03-29T14:44:28.658Z,56.70
2023-03-29T14:46:55.988Z,55.00
2023-03-29T14:49:23.258Z,56.00
2023-03-29T14:51:50.513Z,56.70
2023-03-29T14:54:23.290Z,55.20
2023-03-29T14:56:50.256Z,55.60
2023-03-29T14:59:28.084Z,58.00
2023-03-29T15:01:55.028Z,56.40
2023-03-29T15:04:22.034Z,58.80
2023-03-29T15:06:50.826Z,59.50
2023-03-29T15:09:19.553Z,59.00
2023-03-29T15:11:53.722Z,59.50
2023-03-29T15:14:21.774Z,60.70
2023-03-29T15:16:49.660Z,59.30
2023-03-29T15:19:18.229Z,60.10
2023-03-29T15:21:45.314Z,62.90
2023-03-29T15:24:19.900Z,62.90
2023-03-29T15:26:57.495Z,62.60
2023-03-29T15:29:24.349Z,64.00
2023-03-29T15:31:56.149Z,63.20
2023-03-29T15:34:41.236Z,64.20
2023-03-29T15:37:11.033Z,63.30
2023-03-29T15:39:57.749Z,64.70
2023-03-29T15:42:24.881Z,65.70
2023-03-29T15:45:00.622Z,65.10
2023-03-29T15:47:28.023Z,65.30
2023-03-29T15:49:54.821Z,64.80
2023-03-29T15:52:22.272Z,65.50
2023-03-29T15:54:48.981Z,65.70
2023-03-29T15:57:16.248Z,66.30
2023-03-29T15:59:43.631Z,66.50
2023-03-29T16:02:12.429Z,67.40
2023-03-29T16:04:39.228Z,66.20
2023-03-29T16:07:07.478Z,65.90
2023-03-29T16:09:34.578Z,66.70
2023-03-29T16:12:01.404Z,67.30
2023-03-29T16:14:30.409Z,67.60
2023-03-29T16:17:00.967Z,67.20
2023-03-29T16:19:28.807Z,66.70
2023-03-29T16:21:55.716Z,66.10
2023-03-29T16:24:24.200Z,67.30
2023-03-29T16:26:54.659Z,67.40
2023-03-29T16:29:22.468Z,65.70
2023-03-29T16:31:49.373Z,66.10
2023-03-29T16:34:18.824Z,66.60
2023-03-29T16:36:46.295Z,65.70
2023-03-29T16:39:13.713Z,65.80
2023-03-29T16:41:41.109Z,65.60
2023-03-29T16:44:07.831Z,64.40
2023-03-29T16:46:34.800Z,65.80
2023-03-29T16:49:01.613Z,65.60
2023-03-29T16:51:28.266Z,64.20
2023-03-29T16:53:56.830Z,64.60
2023-03-29T16:56:23.526Z,64.80
2023-03-29T16:58:50.258Z,65.40
2023-03-29T17:01:18.079Z,65.70
2023-03-29T17:03:44.811Z,65.00
2023-03-29T17:06:11.526Z,66.00
2023-03-29T17:08:39.046Z,66.60
2023-03-29T17:11:07.136Z,66.00
2023-03-29T17:13:33.883Z,65.80
2023-03-29T17:16:01.403Z,65.50
2023-03-29T17:18:28.413Z,73.10
2023-03-29T17:20:56.083Z,70.00
2023-03-29T17:23:22.869Z,73.00
2023-03-29T17:25:49.575Z,73.60
2023-03-29T17:28:16.434Z,73.20
2023-03-29T17:30:44.771Z,73.30
2023-03-29T17:33:11.726Z,75.40
2023-03-29T17:35:38.496Z,75.10
2023-03-29T17:38:05.189Z,77.00
2023-03-29T17:40:31.963Z,77.00
2023-03-29T17:42:58.670Z,78.20
2023-03-29T17:45:25.746Z,78.90
2023-03-29T17:47:52.441Z,80.30
2023-03-29T17:50:19.217Z,80.50
2023-03-29T17:52:45.876Z,77.90
2023-03-29T17:55:13.751Z,78.90
2023-03-29T17:57:40.953Z,79.70
2023-03-29T18:00:08.751Z,79.00
2023-03-29T18:02:37.028Z,79.20
2023-03-29T18:05:04.479Z,86.50
2023-03-29T18:07:31.588Z,84.80
2023-03-29T18:09:58.532Z,85.50
2023-03-29T18:12:26.043Z,87.90
2023-03-29T18:14:52.813Z,87.20
2023-03-29T18:17:19.468Z,86.70
2023-03-29T18:19:46.413Z,86.60
2023-03-29T18:22:13.093Z,89.10
2023-03-29T18:24:39.734Z,90.80
2023-03-29T18:27:06.626Z,88.80
2023-03-29T18:29:33.275Z,87.80
2023-03-29T18:32:02.890Z,88.00
2023-03-29T18:34:30.398Z,90.80
2023-03-29T18:36:57.610Z,90.20
2023-03-29T18:39:24.295Z,89.50
2023-03-29T18:41:51.157Z,90.40
2023-03-29T18:44:17.851Z,90.10
2023-03-29T18:46:44.805Z,90.30
2023-03-29T18:49:13.151Z,91.10
2023-03-29T18:51:42.079Z,91.90
2023-03-29T18:54:09.049Z,92.10
2023-03-29T18:56:35.967Z,91.40
2023-03-29T18:59:06.112Z,91.10
2023-03-29T19:01:33.189Z,92.10
2023-03-29T19:03:59.973Z,91.20
2023-03-29T19:06:26.708Z,90.70
2023-03-29T19:08:54.212Z,90.80
2023-03-29T19:11:21.402Z,92.60
2023-03-29T19:13:50.816Z,92.20
2023-03-29T19:16:17.649Z,91.80
2023-03-29T19:18:44.523Z,92.30
2023-03-29T19:21:11.511Z,92.70
2023-03-29T19:23:40.383Z,92.70
2023-03-29T19:26:07.326Z,92.40
2023-03-29T19:28:34.416Z,92.10
2023-03-29T19:31:01.899Z,92.80
2023-03-29T19:33:29.506Z,93.00
2023-03-29T19:36:28.702Z,92.70
2023-03-29T19:38:55.729Z,92.90
2023-03-29T19:41:41.883Z,92.80
2023-03-29T19:44:08.641Z,92.50
2023-03-29T19:46:35.386Z,93.00
2023-03-29T19:49:04.332Z,94.00
2023-03-29T19:51:32.341Z,94.10
2023-03-29T19:53:59.020Z,93.80
2023-03-29T19:56:26.130Z,93.50
2023-03-29T19:58:52.838Z,93.60
2023-03-29T20:01:21.104Z,93.90
2023-03-29T20:03:50.871Z,94.20
2023-03-29T20:06:18.142Z,94.10
2023-03-29T20:08:45.242Z,94.40
2023-03-29T20:11:12.409Z,94.60
2023-03-29T20:13:41.377Z,94.60
2023-03-29T20:16:09.632Z,94.60
2023-03-29T20:18:41.860Z,94.60
2023-03-29T20:21:09.321Z,94.20
2023-03-29T20:23:36.388Z,94.80
2023-03-29T20:26:03.297Z,95.30
2023-03-29T20:28:29.984Z,94.90
2023-03-29T20:30:56.652Z,95.00
2023-03-29T20:33:23.757Z,95.00
2023-03-29T20:35:50.575Z,95.00
2023-03-29T20:38:17.265Z,95.00
2023-03-29T20:40:44.905Z,94.60
2023-03-29T20:43:13.444Z,94.70
2023-03-29T20:45:52.745Z,95.30
2023-03-29T20:48:23.230Z,95.60
2023-03-29T20:50:50.707Z,95.70
2023-03-29T20:53:18.380Z,95.00
2023-03-29T20:55:45.212Z,95.10
2023-03-29T20:58:11.940Z,94.80
2023-03-29T21:00:40.353Z,95.60
2023-03-29T21:03:08.550Z,96.30
2023-03-29T21:05:35.589Z,95.80
2023-03-29T21:08:03.704Z,96.00
2023-03-29T21:10:30.941Z,95.50
2023-03-29T21:13:02.462Z,96.00
2023-03-29T21:15:30.760Z,96.10
2023-03-29T21:17:58.039Z,96.80
2023-03-29T21:20:24.962Z,97.10
2023-03-29T21:22:51.750Z,97.10
2023-03-29T21:25:19.002Z,97.00
2023-03-29T21:27:45.906Z,97.40
2023-03-29T21:30:13.054Z,98.00
2023-03-29T21:32:40.010Z,98.40
2023-03-29T21:35:07.007Z,98.20
2023-03-29T21:37:33.668Z,97.30
2023-03-29T21:40:00.559Z,97.30
2023-03-29T21:42:27.233Z,96.90
2023-03-29T21:44:53.918Z,96.90
2023-03-29T21:47:20.846Z,97.80
2023-03-29T21:49:47.497Z,97.20
2023-03-29T21:52:14.237Z,97.60
2023-03-29T21:54:40.943Z,97.30
2023-03-29T21:57:07.606Z,97.60
2023-03-29T21:59:34.495Z,98.20
2023-03-29T22:02:01.583Z,98.70
2023-03-29T22:04:36.545Z,98.40
2023-03-29T22:07:05.001Z,98.70
2023-03-29T22:09:32.153Z,98.60
2023-03-29T22:11:59.807Z,98.40
2023-03-29T22:14:28.571Z,98.80
2023-03-29T22:16:55.410Z,98.50
2023-03-29T22:19:22.230Z,99.20
2023-03-29T22:21:48.885Z,98.70
2023-03-29T22:24:16.097Z,98.50
2023-03-29T22:26:44.937Z,98.80
2023-03-29T22:29:12.005Z,98.80
2023-03-29T22:31:39.495Z,99.10
2023-03-29T22:34:06.804Z,98.80
2023-03-29T22:36:33.875Z,98.40
2023-03-29T22:39:00.744Z,98.30
2023-03-29T22:41:28.203Z,98.00
2023-03-29T22:43:56.025Z,98.20
2023-03-29T22:46:23.201Z,99.20
2023-03-29T22:48:49.965Z,98.90
2023-03-29T22:51:16.813Z,99.60
2023-03-29T22:53:43.509Z,99.90
2023-03-29T22:56:10.443Z,99.90
2023-03-29T22:58:37.729Z,99.90
2023-03-29T23:01:05.481Z,99.90
2023-03-29T23:03:32.612Z,99.90
2023-03-29T23:06:02.360Z,99.90
2023-03-29T23:08:30.803Z,99.90
2023-03-29T23:10:57.897Z,99.90
2023-03-29T23:13:25.990Z,99.90
2023-03-29T23:15:54.288Z,99.90
2023-03-29T23:18:21.426Z,99.90
2023-03-29T23:20:49.013Z,99.90
2023-03-29T23:23:16.294Z,99.90
2023-03-29T23:25:43.630Z,99.90
2023-03-29T23:28:10.675Z,99.90
2023-03-29T23:30:38.569Z,99.90
2023-03-29T23:33:06.059Z,99.90
2023-03-29T23:35:32.785Z,99.90
2023-03-29T23:37:59.804Z,99.80
2023-03-29T23:40:27.757Z,99.60
2023-03-29T23:42:59.433Z,99.50
2023-03-29T23:45:29.365Z,99.90
2023-03-29T23:47:57.122Z,99.90
2023-03-29T23:50:23.965Z,99.90
2023-03-29T23:52:51.711Z,99.90
2023-03-29T23:55:18.933Z,99.90
2023-03-29T23:57:45.685Z,99.90
